Time;durP1;ratioP1;P1;durP2;ratioP2;P2;SDS_P1;SDS_P2;PMS_P1;PMS_P2;Temp;Humidity;BMP_temperature;BMP_pressure;BME280_temperature;BME280_humidity;BME280_pressure;Samples;Min_cycle;Max_cycle;Signal;HPM_P1;HPM_P2
2023/09/16 00:01:29;;;;;;;1.30;1.10;;;21.30;99.90;;;21.52;62.57;101032.63;6051947;23;102757;-46
2023/09/16 00:03:55;;;;;;;2.50;1.60;;;21.40;99.90;;;21.54;62.35;101037.88;6049882;23;97452;-50
2023/09/16 00:06:21;;;;;;;1.97;1.10;;;21.30;99.90;;;21.53;62.36;101031.66;6051332;23;97106;-47
2023/09/16 00:08:47;;;;;;;1.70;1.07;;;21.30;99.90;;;21.55;62.58;101028.88;6049904;23;97254;-56
2023/09/16 00:11:13;;;;;;;1.53;0.90;;;21.30;99.90;;;21.55;62.37;101037.78;6049473;23;97536;-49
2023/09/16 00:13:41;;;;;;;1.10;1.00;;;21.40;99.90;;;21.58;62.60;101034.88;6047266;23;97755;-48
2023/09/16 00:16:08;;;;;;;0.87;0.87;;;21.40;99.90;;;21.62;62.28;101022.94;6049163;23;101134;-47
2023/09/16 00:18:35;;;;;;;1.63;1.10;;;21.50;99.90;;;21.65;61.79;101021.84;6046330;23;97388;-46
2023/09/16 00:21:00;;;;;;;1.33;1.00;;;21.50;99.90;;;21.66;62.08;101019.03;6044341;23;99441;-48
2023/09/16 00:23:26;;;;;;;1.70;1.40;;;21.60;99.90;;;21.67;62.05;101015.38;6044830;23;97385;-48
2023/09/16 00:25:52;;;;;;;1.30;0.80;;;21.60;99.90;;;21.69;61.91;101018.78;6049889;23;97346;-48
2023/09/16 00:28:18;;;;;;;1.30;1.10;;;21.60;99.90;;;21.72;61.79;101016.88;6051449;23;97624;-49
2023/09/16 00:30:45;;;;;;;1.60;1.00;;;21.60;99.90;;;21.75;61.81;101019.31;6050349;23;97415;-47
2023/09/16 00:33:11;;;;;;;1.57;1.10;;;21.60;99.90;;;21.76;61.83;101015.66;6049443;23;97778;-47
2023/09/16 00:35:37;;;;;;;2.00;1.40;;;21.70;99.90;;;21.78;61.74;101019.06;6049698;23;102097;-48
2023/09/16 00:38:03;;;;;;;1.87;1.27;;;21.70;99.90;;;21.78;61.77;101005.66;6044621;23;97541;-46
2023/09/16 00:40:29;;;;;;;1.20;1.10;;;21.70;99.90;;;21.79;61.54;100999.31;6048231;23;96610;-49
2023/09/16 00:42:55;;;;;;;1.83;1.37;;;21.70;99.90;;;21.81;61.51;101005.41;6020092;23;97684;-51
2023/09/16 00:45:21;;;;;;;1.63;1.10;;;21.70;99.90;;;21.80;60.78;101009.91;6046515;23;97062;-46
2023/09/16 00:47:47;;;;;;;1.20;1.10;;;21.70;99.90;;;21.80;61.48;101007.22;6045732;23;98835;-55
2023/09/16 00:50:14;;;;;;;1.50;1.00;;;21.70;99.90;;;21.78;61.63;101011.88;6050534;23;97387;-47
2023/09/16 00:52:49;;;;;;;2.17;1.30;;;21.60;99.90;;;21.75;60.22;101005.88;6023286;23;97260;-49
2023/09/16 00:55:15;;;;;;;2.03;1.50;;;21.60;99.90;;;21.67;60.06;101009.16;6044302;23;101904;-48
2023/09/16 00:57:46;;;;;;;1.07;0.90;;;21.40;99.90;;;21.59;60.54;101009.75;6045717;23;98111;-46
2023/09/16 01:00:13;;;;;;;1.23;0.90;;;21.30;99.90;;;21.55;62.34;101000.19;6021647;23;97688;-53
2023/09/16 01:02:39;;;;;;;1.30;1.00;;;21.20;99.90;;;21.52;62.21;101005.81;6049402;23;97497;-51
2023/09/16 01:05:08;;;;;;;1.37;1.20;;;21.20;99.90;;;21.53;62.10;101010.19;6046407;23;111324;-48
2023/09/16 01:07:34;;;;;;;0.93;0.83;;;21.30;99.90;;;21.52;62.53;101000.44;6049486;23;97708;-47
2023/09/16 01:10:00;;;;;;;1.47;1.10;;;21.30;99.90;;;21.52;62.37;101005.81;6018801;23;97002;-51
2023/09/16 01:12:26;;;;;;;2.90;1.20;;;21.30;99.90;;;21.55;62.63;101005.56;6046298;23;97538;-47
2023/09/16 01:14:52;;;;;;;1.60;1.10;;;21.40;99.90;;;21.58;62.62;101005.34;6049138;23;99727;-49
2023/09/16 01:17:36;;;;;;;1.60;1.00;;;21.50;99.90;;;21.64;62.25;100998.66;6049733;23;96733;-50
2023/09/16 01:20:06;;;;;;;1.47;0.87;;;21.50;99.90;;;21.65;62.11;101011.09;6047772;23;97496;-49
2023/09/16 01:22:37;;;;;;;2.60;1.10;;;21.60;99.90;;;21.67;61.42;101012.69;6049097;23;98365;-47
2023/09/16 01:25:06;;;;;;;2.40;1.33;;;21.60;99.90;;;21.65;60.10;101006.59;6048683;23;97410;-46
2023/09/16 01:27:32;;;;;;;1.40;1.20;;;21.50;99.90;;;21.64;62.21;101004.88;6051303;23;97278;-47
2023/09/16 01:29:59;;;;;;;1.40;1.30;;;21.50;99.90;;;21.66;62.22;100997.56;6047285;23;96971;-47
2023/09/16 01:32:41;;;;;;;1.73;1.20;;;21.50;99.90;;;21.68;62.09;100995.59;6046307;23;109109;-47
2023/09/16 01:35:10;;;;;;;1.40;1.27;;;21.60;99.90;;;21.67;62.02;100993.91;6017431;23;97428;-46
2023/09/16 01:37:39;;;;;;;2.13;1.43;;;21.60;99.90;;;21.68;61.83;100990.22;6044811;23;97448;-48
2023/09/16 01:40:08;;;;;;;1.03;0.93;;;21.50;99.90;;;21.69;62.02;100991.94;6041726;23;97504;-46
2023/09/16 01:42:34;;;;;;;1.40;1.03;;;21.60;99.90;;;21.71;62.05;101001.75;6048416;23;98475;-47
2023/09/16 01:45:02;;;;;;;1.23;1.03;;;21.60;99.90;;;21.72;62.11;100995.38;6047241;23;97497;-46
2023/09/16 01:47:28;;;;;;;1.20;1.00;;;21.60;99.90;;;21.74;61.98;100990.75;6045989;23;98073;-48
2023/09/16 01:49:54;;;;;;;1.10;0.90;;;21.60;99.90;;;21.74;61.92;100988.06;6044064;23;97572;-48
2023/09/16 01:52:19;;;;;;;1.80;1.20;;;21.70;99.90;;;21.75;61.79;100985.25;6045792;23;98223;-47
2023/09/16 01:54:45;;;;;;;1.73;1.20;;;21.70;99.90;;;21.75;61.73;100985.25;6048680;23;103862;-47
2023/09/16 01:57:11;;;;;;;1.77;1.13;;;21.70;99.90;;;21.78;61.89;100978.78;6040834;23;97157;-47
2023/09/16 01:59:37;;;;;;;1.60;1.07;;;21.80;99.90;;;21.82;61.58;100980.25;6024650;23;100838;-49
2023/09/16 02:02:03;;;;;;;1.90;1.27;;;21.80;99.90;;;21.83;61.53;100971.22;6041405;23;97294;-47
2023/09/16 02:04:29;;;;;;;1.57;0.80;;;21.80;99.90;;;21.84;61.49;100981.00;6045740;23;98304;-47
2023/09/16 02:06:55;;;;;;;1.37;1.03;;;21.80;99.90;;;21.83;61.52;100979.28;6043109;23;97375;-46
2023/09/16 02:09:20;;;;;;;1.67;1.00;;;21.80;99.90;;;21.82;61.47;100977.56;6043370;23;97317;-46
2023/09/16 02:11:46;;;;;;;1.67;1.33;;;21.70;99.90;;;21.84;61.52;100967.56;6041366;23;109469;-49
2023/09/16 02:14:18;;;;;;;1.00;0.90;;;21.80;99.90;;;21.83;61.61;100971.22;6040809;23;97639;-51
2023/09/16 02:16:46;;;;;;;1.50;1.20;;;21.80;99.90;;;21.83;61.07;100966.72;6040865;23;97312;-47
2023/09/16 02:19:12;;;;;;;1.30;1.20;;;21.80;99.90;;;21.83;61.45;100971.22;6036439;23;97430;-46
2023/09/16 02:21:38;;;;;;;1.87;0.90;;;21.70;99.90;;;21.83;61.48;100968.53;6041383;23;100227;-53
2023/09/16 02:24:05;;;;;;;1.13;1.00;;;21.80;99.90;;;21.82;61.52;100974.88;6041864;23;97366;-52
2023/09/16 02:26:31;;;;;;;1.47;0.97;;;21.70;99.90;;;21.82;61.64;100974.88;6040046;23;96908;-48
2023/09/16 02:28:57;;;;;;;1.47;1.37;;;21.80;99.90;;;21.82;61.53;100969.53;6035643;23;97157;-55
2023/09/16 02:31:28;;;;;;;1.67;1.30;;;21.80;99.90;;;21.82;61.51;100966.84;6039953;23;97363;-52
2023/09/16 02:33:58;;;;;;;1.50;1.20;;;21.80;99.90;;;21.84;61.51;100970.25;6044460;23;97468;-55
2023/09/16 02:36:26;;;;;;;1.47;1.27;;;21.80;99.90;;;21.84;61.55;100965.72;6043350;23;97974;-50
2023/09/16 02:38:52;;;;;;;1.27;1.03;;;21.80;99.90;;;21.83;61.58;100976.59;6042575;23;97843;-50
2023/09/16 02:41:18;;;;;;;1.63;1.33;;;21.80;99.90;;;21.81;61.36;100970.50;6045971;23;97581;-48
2023/09/16 02:43:46;;;;;;;2.10;1.03;;;21.70;99.90;;;21.80;61.56;100966.09;6045232;23;101241;-53
2023/09/16 02:46:13;;;;;;;1.73;1.43;;;21.70;99.90;;;21.80;61.54;100966.09;6043374;23;96952;-50
2023/09/16 02:48:39;;;;;;;2.07;1.20;;;21.70;99.90;;;21.77;61.30;100971.72;6045524;23;97314;-49
2023/09/16 02:51:09;;;;;;;1.27;1.10;;;21.60;99.90;;;21.69;60.64;100967.78;6042408;23;97051;-51
2023/09/16 02:53:36;;;;;;;1.10;0.90;;;21.50;99.90;;;21.69;62.08;100967.78;6043731;23;97555;-48
2023/09/16 02:56:03;;;;;;;1.57;1.40;;;21.50;99.90;;;21.68;61.86;100968.75;6039671;23;97584;-50
2023/09/16 02:58:29;;;;;;;1.10;1.00;;;21.50;99.90;;;21.68;62.00;100968.75;6045549;23;97310;-51
2023/09/16 03:00:55;;;;;;;1.23;1.00;;;21.60;99.90;;;21.71;61.99;100973.06;6043142;23;97497;-55
2023/09/16 03:03:21;;;;;;;2.23;1.43;;;21.60;99.90;;;21.74;61.80;100975.50;6039945;23;97272;-53
2023/09/16 03:05:47;;;;;;;1.87;1.40;;;21.70;99.90;;;21.72;60.66;100973.91;6045344;23;97095;-50
2023/09/16 03:08:13;;;;;;;1.47;1.30;;;21.60;99.90;;;21.69;61.40;100970.47;6041854;23;97300;-54
2023/09/16 03:10:39;;;;;;;1.60;1.33;;;21.50;99.90;;;21.65;60.63;100973.50;6041338;23;97697;-55
2023/09/16 03:13:05;;;;;;;1.43;1.20;;;21.40;99.90;;;21.60;61.77;100971.19;6038677;23;97589;-51
2023/09/16 03:15:31;;;;;;;1.20;1.00;;;21.40;99.90;;;21.57;62.01;100970.59;6043126;23;97351;-53
2023/09/16 03:17:57;;;;;;;1.97;1.10;;;21.30;99.90;;;21.58;62.37;100967.78;6045152;23;97446;-49
2023/09/16 03:20:23;;;;;;;1.80;1.43;;;21.40;99.90;;;21.54;60.92;100965.44;6041798;23;98283;-52
2023/09/16 03:22:49;;;;;;;2.00;1.30;;;21.30;99.90;;;21.54;62.58;100954.69;6043921;23;97404;-53
2023/09/16 03:25:14;;;;;;;1.23;1.10;;;21.30;99.90;;;21.54;62.67;100955.53;6045036;23;97102;-54
2023/09/16 03:27:40;;;;;;;1.70;1.27;;;21.30;99.90;;;21.49;60.43;100963.09;6045216;23;97121;-50
2023/09/16 03:30:07;;;;;;;2.50;1.10;;;21.20;99.90;;;21.48;62.36;100961.41;6045041;23;97525;-55
2023/09/16 03:32:33;;;;;;;1.60;1.03;;;21.20;99.90;;;21.48;62.76;100956.03;6043800;23;97958;-51
2023/09/16 03:34:58;;;;;;;1.30;1.20;;;21.30;99.90;;;21.52;62.64;100957.50;6045101;23;96843;-52
2023/09/16 03:37:24;;;;;;;1.47;1.30;;;21.30;99.90;;;21.55;62.54;100954.56;6045303;23;103628;-54
2023/09/16 03:39:50;;;;;;;1.50;0.90;;;21.40;99.90;;;21.59;62.44;100948.00;6038821;23;97500;-52
2023/09/16 03:42:16;;;;;;;2.00;1.30;;;21.50;99.90;;;21.62;62.28;100939.72;6039354;23;97454;-53
2023/09/16 03:44:41;;;;;;;1.53;1.20;;;21.60;99.90;;;21.64;62.39;100940.44;6044868;23;97851;-48
2023/09/16 03:47:09;;;;;;;1.83;1.27;;;21.60;99.90;;;21.66;62.07;100946.56;6040222;23;96897;-52
2023/09/16 03:49:35;;;;;;;1.30;1.10;;;21.60;99.90;;;21.67;61.86;100939.34;6058801;23;97500;-53
2023/09/16 03:52:01;;;;;;;1.67;1.23;;;21.60;99.90;;;21.67;61.80;100939.34;6058445;23;98258;-51
2023/09/16 03:54:27;;;;;;;1.97;1.30;;;21.60;99.90;;;21.69;61.99;100943.63;6056184;23;97133;-46
2023/09/16 03:56:52;;;;;;;1.70;1.20;;;21.60;99.90;;;21.70;62.05;100939.13;6055740;23;103738;-49
2023/09/16 03:59:18;;;;;;;2.17;1.30;;;21.60;99.90;;;21.72;61.94;100947.06;6057520;23;98137;-52
2023/09/16 04:01:44;;;;;;;1.73;1.40;;;21.70;99.90;;;21.73;61.94;100933.53;6039294;23;104994;-53
2023/09/16 04:04:10;;;;;;;1.67;1.43;;;21.70;99.90;;;21.75;61.89;100942.31;6038678;23;97191;-52
2023/09/16 04:06:35;;;;;;;1.60;1.23;;;21.70;99.90;;;21.76;61.60;100938.66;6058437;23;105370;-51
2023/09/16 04:09:01;;;;;;;1.57;1.10;;;21.70;99.90;;;21.76;61.66;100937.78;6061338;22;97799;-77
2023/09/16 04:11:27;;;;;;;1.70;1.20;;;21.70;99.90;;;21.76;61.37;100932.44;6081462;22;97307;-76
2023/09/16 04:13:53;;;;;;;1.90;1.30;;;21.70;99.90;;;21.76;61.72;100937.78;6084320;22;97376;-77
2023/09/16 04:16:19;;;;;;;1.30;1.20;;;21.70;99.90;;;21.76;61.75;100938.66;6072488;23;98207;-77
2023/09/16 04:18:45;;;;;;;1.80;1.30;;;21.70;99.90;;;21.77;61.70;100936.81;6084102;22;110152;-76
2023/09/16 04:21:11;;;;;;;1.37;1.27;;;21.70;99.90;;;21.76;61.79;100929.75;6083025;22;97518;-76
2023/09/16 04:23:37;;;;;;;2.73;1.10;;;21.70;99.90;;;21.77;61.89;100928.75;6083562;22;97090;-75
2023/09/16 04:26:03;;;;;;;1.77;1.37;;;21.70;99.90;;;21.76;61.67;100927.91;6078762;22;107363;-76
2023/09/16 04:28:29;;;;;;;1.40;1.20;;;21.70;99.90;;;21.73;61.44;100927.31;6082289;22;97195;-77
2023/09/16 04:30:56;;;;;;;2.03;1.60;;;21.60;99.90;;;21.67;58.25;100933.97;6086132;22;97466;-75
2023/09/16 04:33:22;;;;;;;2.43;1.20;;;21.50;99.90;;;21.65;62.20;100930.56;6085713;22;97113;-76
2023/09/16 04:35:50;;;;;;;2.03;1.10;;;21.50;99.90;;;21.61;62.13;100934.47;6086936;22;97604;-77
2023/09/16 04:38:18;;;;;;;1.33;1.20;;;21.40;99.90;;;21.65;62.26;100930.56;6082744;23;103527;-76
2023/09/16 04:40:45;;;;;;;1.30;1.00;;;21.50;99.90;;;21.65;62.34;100926.06;6080288;22;101948;-76
2023/09/16 04:43:14;;;;;;;1.20;0.90;;;21.50;99.90;;;21.66;61.95;100927.75;6051866;23;97309;-77
2023/09/16 04:45:44;;;;;;;1.83;1.40;;;21.50;99.90;;;21.68;61.89;100928.50;6083124;22;97435;-77
2023/09/16 04:48:13;;;;;;;2.30;1.67;;;21.60;99.90;;;21.66;61.78;100922.38;6082455;22;99520;-76
2023/09/16 04:50:45;;;;;;;1.30;1.10;;;21.60;99.90;;;21.68;61.98;100925.81;6057832;22;99332;-77
2023/09/16 04:53:11;;;;;;;1.73;1.40;;;21.60;99.90;;;21.69;62.00;100922.16;6083004;22;97390;-77
2023/09/16 04:55:38;;;;;;;1.33;1.10;;;21.60;99.90;;;21.72;61.87;100925.59;6086912;22;97660;-76
2023/09/16 04:58:04;;;;;;;1.23;1.03;;;21.70;99.90;;;21.73;61.88;100922.78;6105833;22;97103;-76
2023/09/16 05:00:33;;;;;;;1.33;1.20;;;21.70;99.90;;;21.73;61.98;100927.31;6108186;22;97188;-76
2023/09/16 05:03:00;;;;;;;2.57;1.33;;;21.70;99.90;;;21.76;61.71;100921.69;6081115;22;97383;-76
2023/09/16 05:05:25;;;;;;;2.27;1.20;;;21.70;99.90;;;21.77;61.84;100929.63;6084590;22;97075;-76
2023/09/16 05:07:51;;;;;;;1.37;1.23;;;21.70;99.90;;;21.77;61.84;100926.06;6082898;23;98489;-75
2023/09/16 05:10:17;;;;;;;2.10;1.30;;;21.70;99.90;;;21.79;61.78;100926.81;6062014;23;99066;-77
2023/09/16 05:12:43;;;;;;;1.80;1.20;;;21.70;99.90;;;21.79;61.70;100916.06;6088219;23;97537;-77
2023/09/16 05:15:33;;;;;;;1.43;1.20;;;21.80;99.90;;;21.81;61.81;100925.72;5958935;22;97140;-74
2023/09/16 05:17:59;;;;;;;2.23;1.40;;;21.80;99.90;;;21.80;61.70;100917.78;6080495;22;97576;-75
2023/09/16 05:20:25;;;;;;;1.37;1.10;;;21.80;99.90;;;21.79;61.73;100922.28;6108056;22;97618;-75
2023/09/16 05:22:51;;;;;;;1.33;1.03;;;21.70;99.90;;;21.80;61.63;100918.63;6080934;22;97475;-76
2023/09/16 05:25:17;;;;;;;1.20;1.10;;;21.80;99.90;;;21.81;61.58;100922.16;6111827;22;97358;-75
2023/09/16 05:27:42;;;;;;;2.07;1.33;;;21.70;99.90;;;21.81;61.60;100925.72;6085674;22;100092;-75
2023/09/16 05:30:11;;;;;;;1.10;1.00;;;21.70;99.90;;;21.80;61.61;100921.31;6056862;23;116400;-75
2023/09/16 05:32:37;;;;;;;2.80;1.37;;;21.70;99.90;;;21.79;61.56;100924.13;6083830;22;99530;-75
2023/09/16 05:35:03;;;;;;;1.53;1.30;;;21.70;99.90;;;21.78;61.71;100925.94;6109268;22;96891;-75
2023/09/16 05:37:28;;;;;;;1.57;1.40;;;21.70;99.90;;;21.79;61.63;100929.50;6084105;22;99785;-75
2023/09/16 05:39:54;;;;;;;1.50;1.30;;;21.70;99.90;;;21.79;61.58;100927.66;6103422;22;114363;-75
2023/09/16 05:42:20;;;;;;;1.90;1.43;;;21.70;99.90;;;21.80;61.54;100926.69;6086381;22;97266;-75
2023/09/16 05:44:46;;;;;;;1.80;1.30;;;21.80;99.90;;;21.81;61.46;100919.47;6083690;23;104125;-75
2023/09/16 05:47:11;;;;;;;1.70;1.33;;;21.80;99.90;;;21.80;61.60;100920.47;6081318;23;99177;-75
2023/09/16 05:49:37;;;;;;;1.53;1.23;;;21.70;99.90;;;21.79;61.33;100916.91;6082867;23;99205;-75
2023/09/16 05:52:03;;;;;;;1.33;1.20;;;21.70;99.90;;;21.79;61.65;100926.81;6084886;23;98025;-75
2023/09/16 05:54:29;;;;;;;2.03;1.43;;;21.70;99.90;;;21.77;61.64;100923.41;6082830;22;97401;-75
2023/09/16 05:56:55;;;;;;;2.13;1.00;;;21.70;99.90;;;21.77;61.58;100920.72;6082279;23;97206;-75
2023/09/16 05:59:21;;;;;;;1.30;1.03;;;21.70;99.90;;;21.77;61.26;100928.75;6085357;22;100128;-75
2023/09/16 06:01:47;;;;;;;1.67;1.30;;;21.70;99.90;;;21.77;61.62;100918.88;6085455;23;97555;-75
2023/09/16 06:04:13;;;;;;;1.20;0.93;;;21.70;99.90;;;21.77;61.61;100926.06;6058965;23;97475;-75
2023/09/16 06:06:39;;;;;;;1.20;1.00;;;21.70;99.90;;;21.76;61.34;100924.38;6086287;23;98346;-75
2023/09/16 06:09:05;;;;;;;1.30;1.10;;;21.70;99.90;;;21.76;61.62;100922.53;6081146;23;99379;-75
2023/09/16 06:11:31;;;;;;;1.43;1.23;;;21.70;99.90;;;21.74;61.76;100913.75;6107709;22;103560;-75
2023/09/16 06:13:56;;;;;;;1.67;1.20;;;21.70;99.90;;;21.76;61.82;100922.53;6083585;23;96761;-75
2023/09/16 06:16:22;;;;;;;2.10;1.60;;;21.70;99.90;;;21.75;61.56;100925.34;6083382;22;97893;-75
2023/09/16 06:18:48;;;;;;;1.13;1.00;;;21.70;99.90;;;21.75;61.83;100919.97;6113213;22;108409;-77
2023/09/16 06:21:17;;;;;;;1.80;1.33;;;21.70;99.90;;;21.75;61.75;100925.34;6086328;23;96923;-75
2023/09/16 06:23:44;;;;;;;1.53;1.10;;;21.70;99.90;;;21.72;61.82;100926.44;6106283;22;99215;-75
2023/09/16 06:26:13;;;;;;;1.70;1.27;;;21.80;99.90;;;21.72;61.79;100928.28;6086421;22;97909;-75
2023/09/16 06:28:39;;;;;;;1.83;1.50;;;21.80;99.90;;;21.76;61.58;100927.06;6107208;22;97369;-75
2023/09/16 06:31:05;;;;;;;2.30;1.43;;;21.80;99.90;;;21.74;61.68;100935.22;6083766;23;97261;-75
2023/09/16 06:33:31;;;;;;;1.40;1.20;;;21.80;99.90;;;21.80;61.56;100939.25;6083876;23;97467;-75
2023/09/16 06:35:57;;;;;;;2.57;1.23;;;21.80;99.90;;;21.84;61.01;100940.72;6106296;22;105175;-75
2023/09/16 06:38:22;;;;;;;1.57;1.40;;;21.80;99.90;;;21.82;61.17;100935.47;6106226;22;97329;-75
2023/09/16 06:40:48;;;;;;;1.43;1.20;;;21.70;99.90;;;21.82;60.94;100934.63;6112561;22;97377;-75
2023/09/16 06:43:14;;;;;;;1.97;1.40;;;21.70;99.90;;;21.80;59.46;100939.25;6059612;22;97156;-75
2023/09/16 06:45:40;;;;;;;1.90;1.53;;;21.70;99.90;;;21.76;61.34;100933.28;6084659;23;103044;-75
2023/09/16 06:48:06;;;;;;;2.30;1.73;;;21.60;99.90;;;21.72;59.99;100936.34;6082547;23;116087;-75
2023/09/16 06:50:31;;;;;;;2.23;1.50;;;21.60;99.90;;;21.68;60.44;100936.53;6083836;23;97111;-75
2023/09/16 06:52:57;;;;;;;6.37;1.70;;;21.50;99.90;;;21.63;59.71;100946.78;6102037;22;97460;-75
2023/09/16 06:55:23;;;;;;;1.87;1.27;;;21.50;99.90;;;21.66;62.00;100943.00;6086150;22;97176;-75
2023/09/16 06:57:49;;;;;;;2.63;1.67;;;21.50;99.90;;;21.65;60.57;100939.47;6087126;22;97312;-75
2023/09/16 07:00:15;;;;;;;1.87;1.30;;;21.50;99.90;;;21.66;61.33;100933.13;6107553;22;97149;-75
2023/09/16 07:02:41;;;;;;;1.97;1.10;;;21.60;99.90;;;21.67;61.82;100940.19;6083759;22;99272;-75
2023/09/16 07:05:07;;;;;;;1.87;1.10;;;21.60;99.90;;;21.68;61.82;100936.53;6084202;22;97246;-75
2023/09/16 07:07:33;;;;;;;1.53;1.20;;;21.60;99.90;;;21.73;61.64;100943.41;6078408;22;99149;-75
2023/09/16 07:09:59;;;;;;;1.50;1.23;;;21.60;99.90;;;21.73;61.91;100938.03;6098186;22;97140;-75
2023/09/16 07:12:25;;;;;;;2.50;1.70;;;21.60;99.90;;;21.73;59.91;100948.78;6063110;22;105302;-75
2023/09/16 07:14:51;;;;;;;2.00;1.70;;;21.70;99.90;;;21.68;61.79;100941.91;6114829;22;102137;-52
2023/09/16 07:17:17;;;;;;;1.40;1.30;;;21.70;99.90;;;21.69;61.67;100949.00;6114307;22;101619;-51
2023/09/16 07:19:43;;;;;;;1.63;1.33;;;21.70;99.90;;;21.72;60.14;100947.06;6111538;22;97085;-53
2023/09/16 07:22:09;;;;;;;1.63;1.50;;;21.60;99.90;;;21.75;61.25;100944.13;6085633;22;97483;-52
2023/09/16 07:24:37;;;;;;;2.87;1.97;;;21.60;99.90;;;21.69;58.90;100938.25;6111948;22;97651;-51
2023/09/16 07:27:04;;;;;;;1.83;1.10;;;21.60;99.90;;;21.73;61.62;100940.72;6113032;22;97017;-53
2023/09/16 07:29:30;;;;;;;2.17;1.73;;;21.60;99.90;;;21.72;61.10;100941.69;6113584;22;97616;-53
2023/09/16 07:31:56;;;;;;;2.30;1.77;;;21.70;99.90;;;21.72;60.51;100944.38;6116307;22;96957;-53
2023/09/16 07:34:22;;;;;;;3.37;1.70;;;21.60;99.90;;;21.69;59.12;100943.63;6109381;22;123220;-48
2023/09/16 07:36:49;;;;;;;2.27;1.70;;;21.60;99.90;;;21.65;59.54;100946.66;6112526;22;97658;-53
2023/09/16 07:39:15;;;;;;;5.83;1.40;;;21.50;99.90;;;21.64;60.68;100948.50;6088821;22;97446;-54
2023/09/16 07:41:41;;;;;;;2.10;1.60;;;21.50;99.90;;;21.63;60.47;100952.16;6111607;22;97397;-52
2023/09/16 07:44:07;;;;;;;3.03;1.70;;;21.50;99.90;;;21.64;60.04;100953.00;6116011;22;97295;-53
2023/09/16 07:46:34;;;;;;;2.80;2.10;;;21.50;99.90;;;21.59;59.04;100958.75;6110869;22;97466;-50
2023/09/16 07:49:01;;;;;;;2.07;1.20;;;21.50;99.90;;;21.63;61.50;100960.22;6113488;22;97068;-53
2023/09/16 07:51:26;;;;;;;1.57;1.33;;;21.50;99.90;;;21.64;61.65;100966.44;6116631;22;97429;-48
2023/09/16 07:53:52;;;;;;;1.70;1.20;;;21.50;99.90;;;21.59;62.20;100972.16;6114989;22;117858;-52
2023/09/16 07:56:20;;;;;;;2.33;1.60;;;21.60;99.90;;;21.65;61.74;100963.63;6115710;22;97656;-53
2023/09/16 07:58:46;;;;;;;2.37;1.90;;;21.60;99.90;;;21.65;59.02;100963.63;6112501;22;97448;-51
2023/09/16 08:01:11;;;;;;;1.80;1.33;;;21.60;99.90;;;21.52;62.38;100962.00;6107370;22;97584;-52
2023/09/16 08:03:38;;;;;;;1.87;1.30;;;21.60;99.90;;;21.57;61.99;100963.38;6105155;22;97414;-52
2023/09/16 08:06:05;;;;;;;2.13;1.50;;;21.60;99.90;;;21.66;60.63;100959.13;6097497;22;97941;-50
2023/09/16 08:08:31;;;;;;;2.00;1.63;;;21.60;99.90;;;21.63;61.66;100965.59;6062236;22;99189;-53
2023/09/16 08:10:56;;;;;;;2.00;1.60;;;21.70;99.90;;;21.56;62.27;100964.34;6097240;22;97643;-53
2023/09/16 08:13:22;;;;;;;1.90;1.33;;;21.60;99.90;;;21.49;62.29;100963.09;6102650;22;111081;-50
2023/09/16 08:15:48;;;;;;;1.93;1.37;;;21.60;99.90;;;21.58;61.41;100961.56;6100812;22;102262;-52
2023/09/16 08:18:15;;;;;;;1.80;1.43;;;21.70;99.90;;;21.65;59.63;100963.63;6072653;22;97285;-52
2023/09/16 08:20:42;;;;;;;2.93;2.07;;;21.70;99.90;;;21.71;59.26;100966.84;6093980;22;97681;-48
2023/09/16 08:23:09;;;;;;;1.50;1.40;;;21.70;99.90;;;21.72;61.55;100960.50;6093089;22;97344;-54
2023/09/16 08:25:35;;;;;;;2.27;1.50;;;21.80;99.90;;;21.59;61.75;100974.84;6095290;22;97336;-55
2023/09/16 08:28:01;;;;;;;2.40;1.63;;;21.70;99.90;;;21.58;61.99;100967.78;6088463;22;97246;-54
2023/09/16 08:30:27;;;;;;;3.13;1.90;;;21.70;99.90;;;21.71;59.76;100969.53;6100739;22;103296;-52
2023/09/16 08:32:53;;;;;;;2.33;1.83;;;21.80;99.90;;;21.79;58.17;100975.13;6101325;22;100075;-50
2023/09/16 08:35:18;;;;;;;2.67;1.77;;;21.80;99.90;;;21.82;60.34;100969.53;6100724;22;97653;-52
2023/09/16 08:37:44;;;;;;;2.50;1.70;;;21.80;99.90;;;21.84;60.81;100970.25;6096099;22;97402;-51
2023/09/16 08:40:11;;;;;;;2.07;1.43;;;21.80;99.90;;;21.74;61.35;100962.06;6089408;22;97413;-52
2023/09/16 08:43:07;;;;;;;3.60;2.00;;;21.80;99.90;;;21.76;61.16;100970.88;6104030;22;102812;-53
2023/09/16 08:45:40;;;;;;;1.83;1.43;;;21.80;99.90;;;21.73;61.49;100960.38;6096674;22;99714;-53
2023/09/16 08:48:13;;;;;;;2.50;1.50;;;21.80;99.90;;;21.78;61.34;100962.69;6078372;22;97415;-53
2023/09/16 08:50:40;;;;;;;2.07;1.70;;;21.80;99.90;;;21.86;59.14;100965.66;6104525;22;97003;-49
2023/09/16 08:53:10;;;;;;;2.67;2.17;;;21.90;99.90;;;21.93;58.72;100966.84;6099552;22;108175;-51
2023/09/16 08:55:37;;;;;;;4.30;1.90;;;21.90;99.90;;;21.97;58.53;100968.31;6103796;22;97378;-47
2023/09/16 08:58:08;;;;;;;2.53;2.00;;;22.00;99.90;;;22.00;57.88;100970.78;6072524;22;97246;-50
2023/09/16 09:00:36;;;;;;;2.33;1.60;;;22.00;99.90;;;21.95;60.31;100976.50;6069619;22;97944;-56
2023/09/16 09:03:02;;;;;;;2.93;2.00;;;21.90;99.90;;;21.99;59.35;100977.13;6101637;22;102821;-56
2023/09/16 09:05:31;;;;;;;2.70;1.90;;;22.00;99.90;;;22.03;58.32;100978.59;6099158;22;97542;-56
2023/09/16 09:07:58;;;;;;;2.37;1.83;;;22.00;99.90;;;22.05;58.61;100976.69;6076160;22;97402;-58
2023/09/16 09:10:24;;;;;;;2.90;2.07;;;22.00;99.90;;;22.06;59.71;100983.75;6102446;22;97686;-52
2023/09/16 09:12:51;;;;;;;2.63;1.60;;;22.10;99.90;;;22.01;60.15;100975.19;6102445;22;99272;-50
2023/09/16 09:15:17;;;;;;;3.93;1.97;;;22.10;99.90;;;22.05;59.65;100982.06;6102835;22;97078;-55
2023/09/16 09:17:52;;;;;;;3.23;2.43;;;22.10;99.90;;;21.97;60.93;100981.75;6101376;22;102724;-49
2023/09/16 09:20:37;;;;;;;5.90;2.40;;;22.00;99.90;;;22.04;60.30;100980.31;6072748;22;102890;-53
2023/09/16 09:23:03;;;;;;;2.63;1.97;;;22.10;99.90;;;22.09;60.15;100975.44;6095254;22;101759;-54
2023/09/16 09:25:31;;;;;;;2.93;2.47;;;22.10;99.90;;;22.10;60.36;100982.53;6098865;22;97362;-52
2023/09/16 09:28:00;;;;;;;2.63;2.23;;;22.10;99.90;;;22.16;60.10;100982.06;6103340;22;97217;-53
2023/09/16 09:30:29;;;;;;;3.03;2.00;;;22.20;99.90;;;22.19;59.70;100979.13;6100032;22;97436;-54
2023/09/16 09:32:57;;;;;;;4.63;2.43;;;22.20;99.90;;;22.24;59.58;100965.31;6098761;22;101427;-52
2023/09/16 09:35:28;;;;;;;3.03;1.73;;;22.30;99.90;;;22.14;59.98;100970.59;6099842;22;102098;-49
2023/09/16 09:37:54;;;;;;;2.22;1.60;;;22.20;99.90;;;21.88;61.17;100969.06;6103017;22;97457;-54
2023/09/16 09:40:21;;;;;;;3.40;1.73;;;22.10;99.90;;;21.90;61.23;100972.47;6099494;22;97858;-50
2023/09/16 09:42:57;;;;;;;2.20;1.50;;;22.00;99.90;;;21.91;60.99;100974.19;6096865;22;97734;-54
2023/09/16 09:45:25;;;;;;;2.40;1.65;;;22.00;99.90;;;21.91;61.10;100975.03;6095120;22;99801;-51
2023/09/16 09:47:53;;;;;;;5.17;2.00;;;22.00;99.90;;;22.09;60.44;100983.50;6102757;22;97245;-51
2023/09/16 09:50:21;;;;;;;3.57;2.47;;;22.10;99.90;;;22.09;61.13;100986.19;6100529;22;97481;-51
2023/09/16 09:52:53;;;;;;;2.38;1.60;;;22.10;99.90;;;21.96;61.05;100980.03;6101698;22;97368;-48
2023/09/16 09:55:22;;;;;;;3.20;2.13;;;22.10;99.90;;;22.12;61.49;100988.63;6103686;22;97470;-53
2023/09/16 09:57:51;;;;;;;2.83;2.23;;;22.20;99.90;;;22.13;60.47;100985.00;6100102;22;97886;-56
2023/09/16 10:00:22;;;;;;;3.03;1.60;;;22.20;99.90;;;22.06;60.68;100983.75;6074010;22;97968;-54
2023/09/16 10:02:49;;;;;;;3.60;2.17;;;22.20;99.90;;;22.22;60.43;100984.25;6047401;22;98689;-53
2023/09/16 10:05:23;;;;;;;2.43;2.00;;;22.30;99.90;;;22.14;60.50;100983.16;6093358;22;97279;-52
2023/09/16 10:07:51;;;;;;;2.67;1.53;;;22.20;99.90;;;22.12;60.73;100982.41;6094624;22;97651;-53
2023/09/16 10:10:22;;;;;;;2.88;2.08;;;22.20;99.90;;;22.18;60.51;100985.47;6089715;22;97378;-52